Friday, November 28, 2014
03:05 UTC
  |  Log In   |  Register Free
Airport Search:

Madison Airport
(KI39)

Madison Airport Diagram
No Airport Diagram Available

FAA data valid effective November 13, 2014 - January 08, 2015 (unless otherwise noted).

 
 
 
 
 
 
 
 
 
 
 
 
 
 

Current Aviation Weather for Madison Airport (KI39)

The most recent METAR observation for KI39 was updated at: 0216
METAR Summary (Translated METAR)
KI39
280155Z AUTO 27008KT 10SM OVC028 M01/M06 A3040 RMK AO2
KDVK
280155Z AUTO 28007KT 10SM OVC023 M01/M05 A3042 RMK AO2
(21 nm SW from KI39)
KLEX
280154Z 29009KT 9SM OVC026 M02/M06 A3040 RMK AO2 SLP305 T10221061
(27.6 nm NW from KI39)
TAF Summary (Translated TAF)
KLEX
(28.6 nm NE from KDVK)
271720Z 2718/2818 31010KT P6SM OVC022 FM272200 29006KT P6SM BKN040 FM280500 VRB03KT P6SM SCT250 FM281400 18006KT P6SM BKN080
  Airport Weather Conditions for KI39

 Current Weather at I39
30° F
Overcast
West winds at 9.2 mph
I39 NOAA Radar

Pressure: 30.40 in
Humidity: 69%
Wind: West at 9.2 MPH (8 KT)
Dew Point: 21.2°F
Visibility: 10.00 mi


Airport Weather Forecast for KI39

Translated METAR and TAF for KDVK
Translated METAR for KDVK (0300 UTC 28 November 2014)
found at http://aviationweather.gov/adds/metars/
 
METAR text: KDVK 280255Z AUTO 30008KT 10SM OVC023 M02/M06 A3043 RMK AO2
Conditions at: KDVK (DANVILLE , KY, US) observed 0255 UTC 28 November 2014
Temperature: -2.0°C (28°F)
Dewpoint: -6.0°C (21°F) [RH = 74%]
Pressure (altimeter): 30.43 inches Hg (1030.6 mb)
Winds: from the WNW (300 degrees) at 9 MPH (8 knots; 4.2 m/s)
Visibility: 10 or more miles (16+ km)
Ceiling: 2300 feet AGL
Clouds: overcast cloud deck at 2300 feet AGL
Weather: automated observation with no human augmentation;
there may or may not be significant weather present at this time
Translated TAF for KDVK

There is no translated TAF available for this airport

Find All Airport Services Find A Hotel Find A Rental Car Find A Golf Course Find A Restaurant $100 Hamburger



FBO's on the Field
FBO Company Facility Photos Services Transportation Aviation Fuel Prices: Prices include tax
Catering Weather Repair Courtesy Rental Type 100LL JetA JetA+ MOGAS 8087
 
Eastern Kentucky University

This FBO has not yet been rated
FS:Shell
Last Updated: Nov-20
Login to update fuel prices
SS:
Contact Eastern Kentucky UniversityMore FBO Information
 
Add another FBO Facility Photos Catering Weather Repair Courtesy Rental Type 100LL JetA JetA+ MOGAS 8087
Services Transportation Aviation Fuel Prices: Prices include tax


model-print
model-print
model-print
model-print